createdAt,value
2022-10-23T00:02:21.064Z,9.18
2022-10-23T00:07:22.766Z,9.15
2022-10-23T00:12:24.249Z,9.17
2022-10-23T00:17:25.759Z,9.12
2022-10-23T00:22:27.518Z,9.07
2022-10-23T00:27:29.039Z,9.06
2022-10-23T00:37:32.257Z,8.90
2022-10-23T00:42:33.708Z,8.81
2022-10-23T00:47:36.676Z,8.92
2022-10-23T00:52:45.392Z,8.89
2022-10-23T00:57:48.636Z,8.80
2022-10-23T01:02:51.074Z,8.80
2022-10-23T01:08:01.770Z,8.74
2022-10-23T01:13:14.459Z,8.85
2022-10-23T01:18:26.361Z,8.78
2022-10-23T01:23:51.049Z,8.75
2022-10-23T01:28:59.868Z,8.72
2022-10-23T01:34:14.596Z,8.71
2022-10-23T01:39:24.640Z,8.72
2022-10-23T01:44:29.095Z,8.73
2022-10-23T01:49:32.383Z,8.71
2022-10-23T01:54:39.342Z,8.64
2022-10-23T01:59:49.589Z,8.68
2022-10-23T02:04:53.981Z,8.57
2022-10-23T02:09:55.596Z,8.60
2022-10-23T02:15:20.748Z,8.54
2022-10-23T02:20:25.487Z,8.54
2022-10-23T02:25:39.440Z,8.56
2022-10-23T02:30:45.039Z,8.46
2022-10-23T02:35:48.385Z,8.40
2022-10-23T02:40:50.121Z,8.44
2022-10-23T02:46:10.136Z,8.35
2022-10-23T02:51:26.789Z,8.46
2022-10-23T02:56:28.227Z,9.11
2022-10-23T03:01:42.084Z,9.78
2022-10-23T03:06:44.214Z,9.90
2022-10-23T03:11:45.946Z,9.83
2022-10-23T03:16:47.377Z,10.12
2022-10-23T03:21:48.825Z,9.89
2022-10-23T03:26:50.241Z,10.03
2022-10-23T03:31:51.715Z,9.94
2022-10-23T03:36:53.387Z,9.68
2022-10-23T03:41:55.009Z,9.63
2022-10-23T03:46:56.736Z,9.83
2022-10-23T03:51:58.312Z,9.10
2022-10-23T03:57:00.385Z,8.97
2022-10-23T04:02:02.044Z,8.94
2022-10-23T04:07:06.409Z,8.92
2022-10-23T04:12:08.019Z,8.83
2022-10-23T04:17:09.622Z,8.79
2022-10-23T04:22:14.271Z,8.76
2022-10-23T04:27:15.761Z,8.72
2022-10-23T04:32:17.193Z,8.75
2022-10-23T04:37:18.747Z,8.80
2022-10-23T04:42:22.395Z,8.74
2022-10-23T04:47:25.035Z,8.85
2022-10-23T04:52:26.838Z,9.28
2022-10-23T04:57:28.294Z,10.11
2022-10-23T05:02:32.885Z,10.70
2022-10-23T05:07:35.463Z,10.83
2022-10-23T05:12:37.386Z,10.89
2022-10-23T05:17:42.995Z,11.25
2022-10-23T05:22:46.074Z,11.15
2022-10-23T05:27:49.646Z,11.16
2022-10-23T05:32:51.266Z,11.15
2022-10-23T05:37:55.505Z,11.20
2022-10-23T05:42:56.946Z,11.36
2022-10-23T05:48:10.611Z,11.55
2022-10-23T05:53:19.795Z,11.49
2022-10-23T05:58:23.470Z,11.55
2022-10-23T06:03:24.957Z,11.60
2022-10-23T06:08:26.386Z,11.64
2022-10-23T06:13:27.832Z,11.58
2022-10-23T06:18:29.576Z,11.55
2022-10-23T06:23:33.031Z,11.57
2022-10-23T06:28:35.714Z,11.49
2022-10-23T06:33:37.394Z,11.60
2022-10-23T06:38:41.295Z,11.57
2022-10-23T06:43:43.034Z,11.72
2022-10-23T06:48:45.195Z,11.81
2022-10-23T06:53:46.763Z,11.81
2022-10-23T06:58:48.392Z,11.92
2022-10-23T07:03:51.962Z,11.92
2022-10-23T07:08:53.678Z,12.03
2022-10-23T07:13:55.183Z,11.94
2022-10-23T07:18:59.570Z,12.08
2022-10-23T07:24:02.246Z,12.07
2022-10-23T07:29:03.926Z,12.18
2022-10-23T07:34:06.344Z,12.18
2022-10-23T07:39:07.981Z,12.20
2022-10-23T07:44:09.451Z,12.20
2022-10-23T07:49:11.656Z,12.31
2022-10-23T07:54:13.328Z,12.35
2022-10-23T07:59:15.159Z,12.41
2022-10-23T08:04:16.640Z,12.45
2022-10-23T08:09:18.126Z,12.47
2022-10-23T08:14:19.640Z,12.50
2022-10-23T08:19:21.188Z,12.51
2022-10-23T08:24:23.300Z,12.62
2022-10-23T08:29:24.835Z,12.64
2022-10-23T08:34:26.924Z,12.82
2022-10-23T08:39:28.434Z,12.89
2022-10-23T08:44:36.777Z,12.98
2022-10-23T08:50:06.458Z,13.06
2022-10-23T08:55:20.089Z,13.07
2022-10-23T09:00:21.625Z,13.21
2022-10-23T09:05:44.105Z,13.32
2022-10-23T09:11:28.106Z,13.37
2022-10-23T09:16:40.275Z,13.40
2022-10-23T09:21:42.515Z,13.42
2022-10-23T09:26:50.760Z,13.46
2022-10-23T09:31:56.207Z,13.46
2022-10-23T09:37:01.221Z,13.50
2022-10-23T09:42:22.514Z,13.49
2022-10-23T09:47:25.703Z,13.50
2022-10-23T09:52:35.975Z,13.58
2022-10-23T09:57:41.849Z,13.66
2022-10-23T10:02:55.612Z,13.78
2022-10-23T10:08:22.568Z,13.89
2022-10-23T10:13:33.482Z,13.99
2022-10-23T10:18:56.721Z,14.12
2022-10-23T10:24:27.349Z,14.28
2022-10-23T10:29:31.774Z,14.35
2022-10-23T10:34:59.172Z,14.41
2022-10-23T10:40:15.402Z,14.48
2022-10-23T10:45:48.755Z,14.52
2022-10-23T10:50:56.705Z,14.59
2022-10-23T10:56:02.082Z,14.66
2022-10-23T11:01:37.154Z,14.85
2022-10-23T11:06:46.022Z,14.89
2022-10-23T11:11:48.745Z,14.99
2022-10-23T11:17:03.389Z,15.00
2022-10-23T11:22:30.961Z,15.08
2022-10-23T11:27:53.402Z,15.22
2022-10-23T11:33:40.359Z,15.40
2022-10-23T11:38:48.491Z,15.43
2022-10-23T11:43:59.732Z,15.49
2022-10-23T11:49:03.287Z,15.52
2022-10-23T11:54:11.708Z,15.58
2022-10-23T11:59:35.347Z,15.71
2022-10-23T12:04:47.070Z,15.81
2022-10-23T12:10:08.977Z,16.02
2022-10-23T12:15:15.772Z,16.13
2022-10-23T12:20:24.236Z,16.23
2022-10-23T12:25:39.148Z,16.37
2022-10-23T12:31:16.368Z,16.48
2022-10-23T12:36:34.570Z,16.49
2022-10-23T12:41:38.687Z,16.49
2022-10-23T12:46:42.604Z,16.58
2022-10-23T12:51:44.257Z,16.62
2022-10-23T12:56:46.583Z,16.69
2022-10-23T13:01:52.847Z,16.77
2022-10-23T13:07:00.647Z,16.85
2022-10-23T13:12:05.625Z,16.91
2022-10-23T13:17:09.312Z,16.90
2022-10-23T13:22:20.111Z,17.00
2022-10-23T13:27:34.577Z,16.99
2022-10-23T13:32:38.225Z,16.97
2022-10-23T13:37:39.840Z,16.94
2022-10-23T13:42:41.797Z,16.95
2022-10-23T13:47:43.899Z,16.95
2022-10-23T13:52:46.349Z,17.02
2022-10-23T13:57:48.271Z,17.01
2022-10-23T14:08:03.629Z,17.00
2022-10-23T14:13:05.286Z,16.98
2022-10-23T14:18:09.036Z,17.07
2022-10-23T14:23:15.104Z,17.00
2022-10-23T14:28:18.905Z,16.96
2022-10-23T14:33:20.471Z,17.03
2022-10-23T14:38:22.097Z,16.98
2022-10-23T14:43:39.379Z,16.95
2022-10-23T14:48:48.191Z,16.89
2022-10-23T14:53:59.558Z,16.78
2022-10-23T14:59:09.368Z,16.79
2022-10-23T15:04:14.672Z,16.76
2022-10-23T15:09:16.892Z,16.66
2022-10-23T15:14:21.386Z,16.52
2022-10-23T15:19:25.934Z,16.53
2022-10-23T15:24:29.855Z,16.45
2022-10-23T15:29:31.352Z,16.37
2022-10-23T15:34:32.808Z,16.34
2022-10-23T15:39:37.331Z,16.26
2022-10-23T15:44:40.373Z,16.08
2022-10-23T15:49:42.420Z,16.07
2022-10-23T15:54:44.140Z,15.97
2022-10-23T15:59:47.868Z,15.93
2022-10-23T16:04:49.494Z,15.97
2022-10-23T16:09:51.130Z,15.82
2022-10-23T16:14:53.254Z,15.89
2022-10-23T16:19:55.722Z,15.86
2022-10-23T16:24:57.393Z,15.87
2022-10-23T16:29:59.045Z,15.65
2022-10-23T16:35:00.693Z,15.59
2022-10-23T16:40:02.440Z,15.48
2022-10-23T16:45:04.688Z,15.37
2022-10-23T16:50:06.409Z,15.30
2022-10-23T16:55:08.524Z,15.16
2022-10-23T17:00:16.904Z,15.10
2022-10-23T17:05:18.343Z,15.33
2022-10-23T17:10:20.017Z,15.14
2022-10-23T17:15:23.923Z,15.28
2022-10-23T17:20:25.516Z,15.38
2022-10-23T17:25:35.939Z,15.37
2022-10-23T17:30:38.480Z,15.26
2022-10-23T17:35:40.171Z,15.34
2022-10-23T17:40:59.450Z,15.75
2022-10-23T17:46:02.762Z,15.65
2022-10-23T17:51:05.562Z,15.69
2022-10-23T17:56:09.901Z,15.71
2022-10-23T18:01:14.440Z,15.84
2022-10-23T18:06:20.093Z,15.72
2022-10-23T18:11:30.781Z,16.01
2022-10-23T18:16:33.318Z,15.93
2022-10-23T18:21:35.944Z,16.01
2022-10-23T18:26:39.254Z,16.12
2022-10-23T18:31:41.687Z,16.26
2022-10-23T18:36:43.967Z,16.12
2022-10-23T18:41:48.604Z,16.03
2022-10-23T18:46:51.298Z,15.97
2022-10-23T18:51:52.890Z,16.18
2022-10-23T18:56:54.556Z,16.09
2022-10-23T19:01:56.288Z,16.09
2022-10-23T19:06:58.129Z,16.17
2022-10-23T19:12:02.522Z,16.19
2022-10-23T19:17:13.853Z,16.21
2022-10-23T19:22:18.807Z,16.33
2022-10-23T19:27:20.682Z,16.29
2022-10-23T19:32:25.605Z,16.16
2022-10-23T19:37:27.079Z,15.93
2022-10-23T19:42:28.534Z,15.82
2022-10-23T19:47:30.085Z,15.86
2022-10-23T19:52:31.804Z,15.62
2022-10-23T19:57:37.071Z,15.59
2022-10-23T20:02:38.746Z,15.70
2022-10-23T20:07:40.296Z,15.72
2022-10-23T20:12:47.469Z,15.72
2022-10-23T20:17:59.609Z,15.57
2022-10-23T20:23:01.218Z,15.81
2022-10-23T20:28:03.642Z,15.69
2022-10-23T20:33:05.141Z,15.40
2022-10-23T20:38:07.743Z,15.52
2022-10-23T20:43:09.199Z,15.28
2022-10-23T20:48:12.724Z,15.17
2022-10-23T20:53:16.672Z,14.95
2022-10-23T20:58:18.203Z,15.03
2022-10-23T21:03:19.653Z,15.23
2022-10-23T21:08:21.161Z,14.94
2022-10-23T21:13:25.106Z,15.20
2022-10-23T21:18:45.101Z,15.09
2022-10-23T21:23:49.070Z,15.18
2022-10-23T21:29:00.958Z,14.96
2022-10-23T21:34:08.393Z,14.82
2022-10-23T21:39:09.866Z,14.80
2022-10-23T21:44:13.624Z,14.77
2022-10-23T21:49:15.081Z,14.73
2022-10-23T21:54:16.546Z,14.70
2022-10-23T21:59:22.903Z,14.81
2022-10-23T22:04:24.507Z,14.80
2022-10-23T22:09:26.091Z,14.66
2022-10-23T22:14:27.711Z,14.63
2022-10-23T22:19:29.298Z,14.56
2022-10-23T22:24:30.831Z,14.59
2022-10-23T22:29:32.503Z,14.39
2022-10-23T22:34:51.947Z,14.32
2022-10-23T22:39:54.177Z,14.19
2022-10-23T22:44:55.841Z,14.07
2022-10-23T22:49:57.461Z,14.24
2022-10-23T22:55:02.563Z,14.21
2022-10-23T23:00:06.918Z,14.18
2022-10-23T23:05:11.798Z,14.40
2022-10-23T23:10:13.303Z,14.27
2022-10-23T23:15:14.872Z,14.26
2022-10-23T23:20:19.636Z,14.20
2022-10-23T23:25:21.167Z,14.03
2022-10-23T23:30:22.941Z,14.01
2022-10-23T23:35:25.038Z,13.97
2022-10-23T23:40:26.776Z,13.94
2022-10-23T23:45:28.359Z,13.84
2022-10-23T23:50:29.822Z,13.79
2022-10-23T23:55:31.436Z,13.78
